Pagina principale
METAR-TAF:

METAR-TAF

Aeroporti :

Aeroporto di Berna

Berna, Svizzera

latitudine: 46-55N, longitudine: 007-30E, altezza: 505 m

Osservazione

Il bollettino è stato emesso 36 minuti fa, alle 18:20 UTC
Vento 2 kt da direzioni variabili
Temperature 5°C
Umidità 87%
Pressione 1018 hPa
Visibilità 10 km o più
nessuna nube inferiore a 1500 m e nessun cumulonembo

METAR: LSZB 161820Z VRB02KT CAVOK 05/03 Q1018 NOSIG

Ora: 19:56 (18:56 UTC)

Previsione

Il bollettino è stato emesso 4 ore e 31 minuti fa, alle 14:25 UTC
Previsione valida dal 16 alle 15 UTC al 16 alle 24 UTC
Vento 3 kt da direzioni variabili
Visibilità 10 km o più
nessuna nube inferiore a 1500 m e nessun cumulonembo
Temporaneamente
dal 16 alle 15 UTC al 16 alle 24 UTC
Poco nuvoloso ad un'altezza di 12000 ft

TAF: LSZB 161425Z 1615/1624 VRB03KT CAVOK TEMPO 1615/1624 FEW120

Osservazioni e previsioni meteorologiche di più di 4000 aeroporti (messaggi METAR e TAF).

Le stazioni disponibili sono rappresentate dai dischi gialli e rossi sulla carta.

Puntare il mouse per vedere il nome della stazione.

Clicca sopra per visualizzare le osservazioni e previsioni meteorologiche.

Per cambiare la mappa : fare clic sui pulsanti verdi con una croce nera per ingrandire, il pulsante verde con un trattino per diminuire, o sulla freccia verde per le mappe adiacenti.


METAR-TAF: